createdAt,value
2017-09-19T00:02:00.799Z,21.17
2017-09-19T00:04:27.844Z,22.33
2017-09-19T00:06:54.569Z,21.23
2017-09-19T00:09:21.290Z,22.90
2017-09-19T00:11:48.039Z,21.90
2017-09-19T00:14:14.765Z,22.37
2017-09-19T00:16:41.496Z,25.57
2017-09-19T00:19:08.271Z,25.80
2017-09-19T00:21:35.046Z,25.37
2017-09-19T00:24:01.784Z,25.83
2017-09-19T00:26:28.606Z,22.53
2017-09-19T00:28:55.434Z,22.90
2017-09-19T00:31:22.361Z,22.57
2017-09-19T00:33:49.174Z,26.43
2017-09-19T00:36:15.938Z,23.47
2017-09-19T00:38:42.689Z,19.50
2017-09-19T00:41:09.539Z,22.30
2017-09-19T00:43:36.314Z,25.33
2017-09-19T00:46:03.056Z,21.60
2017-09-19T00:48:29.837Z,27.20
2017-09-19T00:50:56.550Z,26.67
2017-09-19T00:53:23.315Z,26.23
2017-09-19T00:55:50.095Z,30.73
2017-09-19T00:58:16.851Z,28.80
2017-09-19T01:00:43.579Z,29.90
2017-09-19T01:03:10.942Z,24.87
2017-09-19T01:05:38.185Z,26.40
2017-09-19T01:08:04.955Z,32.90
2017-09-19T01:10:31.719Z,26.20
2017-09-19T01:12:58.504Z,22.53
2017-09-19T01:15:25.278Z,30.43
2017-09-19T01:17:52.842Z,27.93
2017-09-19T01:20:19.603Z,31.03
2017-09-19T01:22:46.426Z,31.10
2017-09-19T01:25:13.258Z,28.13
2017-09-19T01:27:40.637Z,32.03
2017-09-19T01:30:07.388Z,28.90
2017-09-19T01:32:34.144Z,28.90
2017-09-19T01:35:00.900Z,28.70
2017-09-19T01:37:27.646Z,26.53
2017-09-19T01:39:54.428Z,26.33
2017-09-19T01:42:21.387Z,28.40
2017-09-19T01:44:48.264Z,32.13
2017-09-19T01:47:15.015Z,32.00
2017-09-19T01:49:41.794Z,29.70
2017-09-19T01:52:08.512Z,28.97
2017-09-19T01:54:35.305Z,27.50
2017-09-19T01:57:02.074Z,25.10
2017-09-19T01:59:28.786Z,29.27
2017-09-19T02:01:55.590Z,29.60
2017-09-19T02:04:22.399Z,27.37
2017-09-19T02:06:49.162Z,28.33
2017-09-19T02:09:16.262Z,26.20
2017-09-19T02:11:43.036Z,26.70
2017-09-19T02:14:09.795Z,30.97
2017-09-19T02:16:36.603Z,27.47
2017-09-19T02:19:03.385Z,33.50
2017-09-19T02:21:30.160Z,23.50
2017-09-19T02:23:56.962Z,28.50
2017-09-19T02:26:23.738Z,30.90
2017-09-19T02:28:50.530Z,28.70
2017-09-19T02:31:17.330Z,30.10
2017-09-19T02:33:44.110Z,31.90
2017-09-19T02:36:11.037Z,29.97
2017-09-19T02:38:37.843Z,27.13
2017-09-19T02:41:04.822Z,30.30
2017-09-19T02:43:31.624Z,32.00
2017-09-19T02:45:58.409Z,34.10
2017-09-19T02:48:25.182Z,34.77
2017-09-19T02:50:51.925Z,37.53
2017-09-19T02:53:18.741Z,32.20
2017-09-19T02:55:45.523Z,32.70
2017-09-19T02:58:12.298Z,33.30
2017-09-19T03:00:39.090Z,32.57
2017-09-19T03:03:05.862Z,35.43
2017-09-19T03:05:32.631Z,32.57
2017-09-19T03:07:59.645Z,31.63
2017-09-19T03:10:26.391Z,31.03
2017-09-19T03:12:53.182Z,32.47
2017-09-19T03:15:19.971Z,30.10
2017-09-19T03:17:46.721Z,31.30
2017-09-19T03:20:13.482Z,28.30
2017-09-19T03:22:40.291Z,31.47
2017-09-19T03:25:07.058Z,32.50
2017-09-19T03:27:33.874Z,32.23
2017-09-19T03:30:00.710Z,34.77
2017-09-19T03:32:27.490Z,36.80
2017-09-19T03:34:54.235Z,38.40
2017-09-19T03:37:21.020Z,34.50
2017-09-19T03:39:47.786Z,33.17
2017-09-19T03:42:14.558Z,36.43
2017-09-19T03:44:41.359Z,36.13
2017-09-19T03:47:08.754Z,37.50
2017-09-19T03:49:35.534Z,39.27
2017-09-19T03:52:02.611Z,40.60
2017-09-19T03:54:29.370Z,43.03
2017-09-19T03:56:56.139Z,36.17
2017-09-19T03:59:22.931Z,38.93
2017-09-19T04:01:49.701Z,36.50
2017-09-19T04:04:16.472Z,37.73
2017-09-19T04:06:43.280Z,39.00
2017-09-19T04:09:10.047Z,37.53
2017-09-19T04:11:36.814Z,37.93
2017-09-19T04:14:03.602Z,40.90
2017-09-19T04:16:30.372Z,40.70
2017-09-19T04:18:57.128Z,36.93
2017-09-19T04:21:23.939Z,41.10
2017-09-19T04:23:50.724Z,37.27
2017-09-19T04:26:18.115Z,41.73
2017-09-19T04:28:44.943Z,38.10
2017-09-19T04:31:11.698Z,35.03
2017-09-19T04:33:38.810Z,41.20
2017-09-19T04:36:05.622Z,35.43
2017-09-19T04:38:32.387Z,38.80
2017-09-19T04:40:59.223Z,37.97
2017-09-19T04:43:27.058Z,46.87
2017-09-19T04:45:53.834Z,44.53
2017-09-19T04:48:20.610Z,35.73
2017-09-19T04:50:47.418Z,41.27
2017-09-19T04:53:14.188Z,45.60
2017-09-19T04:55:40.971Z,44.27
2017-09-19T04:58:07.775Z,41.67
2017-09-19T05:00:34.552Z,48.00
2017-09-19T05:03:01.315Z,45.07
2017-09-19T05:05:28.144Z,41.47
2017-09-19T05:07:54.898Z,45.13
2017-09-19T05:10:21.687Z,51.47
2017-09-19T05:12:48.485Z,45.60
2017-09-19T05:15:15.270Z,51.93
2017-09-19T05:17:42.038Z,47.40
2017-09-19T05:20:08.820Z,48.13
2017-09-19T05:22:35.607Z,43.20
2017-09-19T05:25:02.366Z,45.20
2017-09-19T05:27:29.169Z,44.00
2017-09-19T05:29:55.955Z,42.47
2017-09-19T05:32:22.715Z,47.60
2017-09-19T05:34:49.630Z,41.37
2017-09-19T05:37:16.479Z,46.47
2017-09-19T05:39:43.310Z,51.00
2017-09-19T05:42:10.132Z,41.03
2017-09-19T05:44:36.913Z,45.67
2017-09-19T05:47:03.690Z,42.00
2017-09-19T05:49:30.475Z,42.07
2017-09-19T05:51:57.271Z,50.57
2017-09-19T05:54:24.034Z,50.90
2017-09-19T05:56:50.838Z,43.00
2017-09-19T05:59:17.588Z,45.70
2017-09-19T06:01:44.361Z,45.33
2017-09-19T06:04:11.157Z,44.60
2017-09-19T06:06:37.922Z,43.67
2017-09-19T06:09:10.575Z,47.17
2017-09-19T06:11:37.379Z,43.50
2017-09-19T06:14:04.127Z,39.77
2017-09-19T06:16:30.896Z,42.80
2017-09-19T06:18:57.712Z,41.23
2017-09-19T06:21:24.770Z,43.70
2017-09-19T06:23:52.021Z,42.50
2017-09-19T06:26:19.178Z,39.80
2017-09-19T06:28:45.958Z,47.50
2017-09-19T06:31:12.719Z,37.60
2017-09-19T06:33:39.555Z,42.03
2017-09-19T06:36:06.300Z,57.90
2017-09-19T06:38:33.805Z,45.67
2017-09-19T06:41:00.601Z,65.40
2017-09-19T06:43:27.375Z,46.53
2017-09-19T06:45:54.131Z,45.43
2017-09-19T06:48:21.124Z,44.13
2017-09-19T06:50:47.888Z,52.00
2017-09-19T06:53:14.694Z,43.17
2017-09-19T06:55:41.501Z,42.70
2017-09-19T06:58:08.441Z,41.70
2017-09-19T07:00:35.261Z,38.13
2017-09-19T07:03:02.363Z,39.43
2017-09-19T07:05:29.116Z,43.30
2017-09-19T07:07:55.890Z,39.27
2017-09-19T07:10:22.711Z,40.73
2017-09-19T07:12:49.464Z,42.20
2017-09-19T07:15:16.720Z,38.97
2017-09-19T07:17:43.496Z,39.57
2017-09-19T07:20:10.251Z,44.27
2017-09-19T07:22:37.018Z,41.93
2017-09-19T07:25:03.807Z,38.60
2017-09-19T07:27:30.573Z,39.60
2017-09-19T07:29:57.361Z,37.50
2017-09-19T07:32:24.167Z,40.37
2017-09-19T07:34:50.916Z,36.17
2017-09-19T07:37:17.683Z,36.50
2017-09-19T07:39:44.482Z,36.20
2017-09-19T07:42:11.250Z,38.37
2017-09-19T07:44:38.001Z,33.60
2017-09-19T07:47:04.806Z,34.80
2017-09-19T07:49:31.576Z,33.50
2017-09-19T07:51:58.351Z,32.93
2017-09-19T07:54:25.159Z,33.60
2017-09-19T07:56:51.908Z,44.70
2017-09-19T07:59:18.735Z,35.07
2017-09-19T08:01:45.542Z,34.73
2017-09-19T08:04:12.305Z,34.83
2017-09-19T08:06:39.056Z,30.07
2017-09-19T08:09:05.868Z,28.97
2017-09-19T08:11:32.635Z,27.47
2017-09-19T08:14:00.125Z,27.37
2017-09-19T08:16:26.919Z,26.40
2017-09-19T08:18:53.672Z,26.97
2017-09-19T08:21:20.425Z,23.03
2017-09-19T08:23:47.230Z,28.90
2017-09-19T08:26:13.979Z,28.80
2017-09-19T08:28:40.742Z,26.20
2017-09-19T08:31:07.531Z,25.07
2017-09-19T08:33:34.477Z,31.00
2017-09-19T08:36:01.254Z,25.37
2017-09-19T08:38:28.036Z,28.07
2017-09-19T08:40:54.792Z,28.43
2017-09-19T08:43:21.539Z,25.83
2017-09-19T08:45:48.338Z,27.07
2017-09-19T08:48:15.109Z,28.73
2017-09-19T08:50:41.861Z,24.20
2017-09-19T08:53:08.663Z,26.73
2017-09-19T08:55:36.211Z,29.00
2017-09-19T08:58:02.975Z,25.73
2017-09-19T09:00:29.763Z,23.07
2017-09-19T09:02:56.558Z,29.90
2017-09-19T09:05:23.334Z,25.57
2017-09-19T09:07:50.141Z,24.13
2017-09-19T09:10:17.237Z,26.97
2017-09-19T09:12:44.011Z,24.90
2017-09-19T09:15:10.820Z,20.30
2017-09-19T09:17:37.598Z,24.73
2017-09-19T09:20:04.380Z,22.60
2017-09-19T09:22:31.307Z,22.50
2017-09-19T09:24:58.056Z,23.23
2017-09-19T09:27:24.822Z,23.73
2017-09-19T09:29:51.609Z,21.90
2017-09-19T09:32:18.371Z,18.43
2017-09-19T09:34:45.115Z,21.93
2017-09-19T09:37:11.911Z,17.93
2017-09-19T09:39:38.723Z,17.00
2017-09-19T09:42:05.834Z,18.53
2017-09-19T09:44:33.354Z,16.47
2017-09-19T09:47:00.100Z,16.97
2017-09-19T09:49:26.847Z,16.00
2017-09-19T09:51:53.664Z,16.77
2017-09-19T09:54:20.440Z,17.87
2017-09-19T09:56:47.246Z,18.10
2017-09-19T09:59:14.038Z,15.27
2017-09-19T10:01:40.822Z,12.87
2017-09-19T10:04:07.629Z,12.10
2017-09-19T10:06:34.431Z,13.30
2017-09-19T10:09:01.182Z,11.23
2017-09-19T10:11:27.921Z,9.90
2017-09-19T10:13:54.719Z,10.67
2017-09-19T10:16:21.504Z,10.90
2017-09-19T10:18:49.138Z,9.30
2017-09-19T10:21:15.918Z,8.83
2017-09-19T10:23:42.719Z,11.33
2017-09-19T10:26:09.476Z,13.73
2017-09-19T10:28:36.263Z,9.93
2017-09-19T10:31:03.026Z,10.23
2017-09-19T10:33:29.763Z,9.83
2017-09-19T10:35:56.598Z,10.07
2017-09-19T10:38:23.351Z,7.13
2017-09-19T10:40:50.118Z,9.67
2017-09-19T10:43:16.911Z,7.93
2017-09-19T10:45:43.667Z,9.00
2017-09-19T10:48:10.429Z,8.70
2017-09-19T10:50:37.231Z,7.60
2017-09-19T10:53:03.999Z,6.77
2017-09-19T10:55:30.757Z,9.20
2017-09-19T10:57:57.563Z,5.20
2017-09-19T11:00:24.327Z,6.80
2017-09-19T11:02:51.117Z,8.37
2017-09-19T11:05:17.915Z,7.97
2017-09-19T11:07:44.709Z,7.70
2017-09-19T11:10:11.759Z,7.30
2017-09-19T11:12:38.548Z,8.03
2017-09-19T11:15:05.375Z,7.93
2017-09-19T11:17:32.407Z,8.60
2017-09-19T11:19:59.210Z,8.00
2017-09-19T11:22:25.978Z,8.70
2017-09-19T11:24:52.767Z,7.73
2017-09-19T11:27:19.542Z,9.47
2017-09-19T11:29:46.325Z,8.73
2017-09-19T11:32:13.086Z,9.70
2017-09-19T11:34:39.881Z,9.70
2017-09-19T11:37:07.250Z,11.57
2017-09-19T11:39:33.995Z,10.57
2017-09-19T11:42:00.801Z,7.90
2017-09-19T11:44:27.838Z,8.50
2017-09-19T11:46:54.588Z,10.10
2017-09-19T11:49:21.377Z,12.90
2017-09-19T11:51:48.150Z,15.80
2017-09-19T11:54:14.923Z,13.73
2017-09-19T11:56:41.730Z,12.93
2017-09-19T11:59:08.498Z,13.03
2017-09-19T12:01:35.243Z,11.50
2017-09-19T12:04:02.028Z,10.83
2017-09-19T12:06:28.764Z,7.07
2017-09-19T12:08:55.514Z,7.87
2017-09-19T12:11:22.309Z,8.83
2017-09-19T12:13:49.085Z,8.60
2017-09-19T12:16:15.963Z,9.10
2017-09-19T12:18:42.762Z,8.77
2017-09-19T12:21:09.531Z,8.13
2017-09-19T12:23:36.287Z,8.33
2017-09-19T12:26:03.433Z,9.33
2017-09-19T12:28:30.195Z,5.27
2017-09-19T12:30:56.937Z,4.97
2017-09-19T12:33:23.750Z,4.93
2017-09-19T12:35:50.497Z,5.17
2017-09-19T12:38:17.236Z,4.57
2017-09-19T12:40:44.008Z,4.30
2017-09-19T12:43:10.749Z,3.00
2017-09-19T12:45:37.526Z,3.00
2017-09-19T12:48:04.306Z,3.10
2017-09-19T12:50:31.074Z,4.03
2017-09-19T12:52:57.870Z,3.17
2017-09-19T12:55:24.650Z,2.70
2017-09-19T12:57:51.406Z,2.87
2017-09-19T13:00:18.190Z,3.80
2017-09-19T13:02:44.981Z,2.73
2017-09-19T13:05:11.742Z,3.40
2017-09-19T13:07:38.499Z,2.20
2017-09-19T13:10:05.294Z,2.30
2017-09-19T13:12:32.044Z,4.43
2017-09-19T13:14:58.785Z,3.20
2017-09-19T13:17:25.577Z,8.33
2017-09-19T13:19:52.323Z,3.70
2017-09-19T13:22:19.090Z,2.23
2017-09-19T13:24:45.892Z,2.80
2017-09-19T13:27:12.627Z,3.17
2017-09-19T13:29:39.381Z,3.60
2017-09-19T13:32:11.998Z,4.50
2017-09-19T13:34:38.874Z,1.90
2017-09-19T13:37:05.650Z,2.63
2017-09-19T13:39:32.419Z,2.80
2017-09-19T13:41:59.174Z,2.87
2017-09-19T13:44:25.957Z,2.60
2017-09-19T13:46:52.760Z,2.50
2017-09-19T13:49:19.508Z,29.27
2017-09-19T13:51:46.285Z,3.10
2017-09-19T13:54:13.127Z,4.80
2017-09-19T13:56:39.886Z,2.83
2017-09-19T13:59:06.619Z,3.93
2017-09-19T14:01:33.410Z,1.80
2017-09-19T14:04:00.494Z,5.90
2017-09-19T14:06:27.306Z,1.43
2017-09-19T14:08:54.125Z,1.83
2017-09-19T14:11:20.861Z,3.80
2017-09-19T14:13:47.634Z,1.27
2017-09-19T14:16:14.412Z,2.60
2017-09-19T14:18:41.169Z,1.97
2017-09-19T14:21:08.066Z,1.70
2017-09-19T14:23:34.837Z,2.97
2017-09-19T14:26:01.586Z,2.70
2017-09-19T14:28:28.350Z,4.73
2017-09-19T14:30:55.698Z,2.73
2017-09-19T14:33:23.611Z,4.40
2017-09-19T14:35:50.369Z,3.27
2017-09-19T14:38:17.136Z,5.10
2017-09-19T14:40:45.698Z,4.00
2017-09-19T14:43:13.522Z,2.17
2017-09-19T14:45:40.327Z,4.40
2017-09-19T14:48:07.075Z,2.90
2017-09-19T14:50:33.810Z,7.53
2017-09-19T14:53:01.212Z,3.37
2017-09-19T14:55:27.986Z,2.10
2017-09-19T14:57:54.746Z,3.50
2017-09-19T15:00:21.564Z,2.03
2017-09-19T15:02:48.328Z,2.60
2017-09-19T15:05:15.071Z,2.10
2017-09-19T15:07:41.853Z,1.70
2017-09-19T15:10:08.639Z,2.20
2017-09-19T15:12:35.456Z,1.83
2017-09-19T15:15:02.827Z,32.57
2017-09-19T15:17:29.758Z,2.10
2017-09-19T15:19:56.530Z,3.80
2017-09-19T15:22:23.523Z,1.53
2017-09-19T15:24:50.346Z,9.73
2017-09-19T15:27:17.123Z,3.93
2017-09-19T15:29:43.916Z,4.10
2017-09-19T15:32:11.016Z,3.83
2017-09-19T15:34:38.527Z,2.40
2017-09-19T15:37:05.999Z,9.30
2017-09-19T15:39:32.800Z,2.23
2017-09-19T15:41:59.624Z,2.03
2017-09-19T15:44:26.432Z,1.70
2017-09-19T15:46:54.232Z,2.03
2017-09-19T15:49:20.991Z,4.10
2017-09-19T15:51:48.135Z,2.07
2017-09-19T15:54:14.980Z,3.63
2017-09-19T15:56:41.755Z,3.00
2017-09-19T15:59:08.545Z,5.87
2017-09-19T16:01:35.327Z,3.23
2017-09-19T16:04:02.092Z,3.57
2017-09-19T16:06:28.904Z,5.33
2017-09-19T16:08:55.662Z,1.43
2017-09-19T16:11:22.439Z,3.43
2017-09-19T16:13:49.230Z,3.03
2017-09-19T16:16:16.106Z,1.60
2017-09-19T16:18:42.853Z,2.60
2017-09-19T16:21:09.726Z,5.30
2017-09-19T16:23:36.486Z,4.60
2017-09-19T16:26:03.239Z,1.73
2017-09-19T16:28:30.020Z,4.40
2017-09-19T16:30:56.827Z,4.43
2017-09-19T16:33:23.584Z,5.13
2017-09-19T16:35:50.990Z,3.60
2017-09-19T16:38:17.753Z,3.67
2017-09-19T16:40:45.409Z,2.20
2017-09-19T16:43:14.914Z,7.03
2017-09-19T16:45:41.663Z,1.60
2017-09-19T16:48:08.417Z,5.27
2017-09-19T16:50:35.217Z,1.70
2017-09-19T16:53:01.988Z,7.00
2017-09-19T16:55:28.729Z,3.30
2017-09-19T16:57:56.077Z,4.40
2017-09-19T17:00:22.834Z,1.80
2017-09-19T17:02:49.611Z,3.03
2017-09-19T17:05:16.427Z,6.33
2017-09-19T17:07:43.187Z,3.10
2017-09-19T17:10:09.928Z,2.23
2017-09-19T17:12:37.048Z,4.40
2017-09-19T17:15:03.835Z,4.80
2017-09-19T17:17:30.587Z,6.00
2017-09-19T17:19:57.419Z,4.83
2017-09-19T17:22:25.237Z,2.17
2017-09-19T17:24:51.978Z,1.20
2017-09-19T17:27:18.756Z,5.93
2017-09-19T17:29:45.495Z,2.50
2017-09-19T17:32:12.235Z,3.40
2017-09-19T17:34:39.028Z,2.93
2017-09-19T17:37:05.790Z,3.10
2017-09-19T17:39:32.702Z,3.40
2017-09-19T17:41:59.506Z,2.10
2017-09-19T17:44:26.306Z,4.83
2017-09-19T17:46:53.076Z,3.07
2017-09-19T17:49:19.869Z,2.40
2017-09-19T17:51:46.698Z,7.13
2017-09-19T17:54:13.458Z,3.50
2017-09-19T17:56:40.240Z,3.30
2017-09-19T17:59:07.005Z,6.63
2017-09-19T18:01:34.126Z,2.93
2017-09-19T18:04:00.916Z,6.30
2017-09-19T18:06:27.928Z,3.57
2017-09-19T18:08:54.683Z,4.20
2017-09-19T18:11:21.506Z,4.97
2017-09-19T18:13:48.322Z,6.07
2017-09-19T18:16:15.076Z,8.50
2017-09-19T18:18:42.137Z,4.03
2017-09-19T18:21:08.953Z,4.37
2017-09-19T18:23:35.726Z,6.90
2017-09-19T18:26:02.818Z,6.62
2017-09-19T18:28:29.552Z,6.15
2017-09-19T18:30:56.308Z,6.03
2017-09-19T18:33:23.111Z,4.53
2017-09-19T18:35:49.856Z,5.47
2017-09-19T18:38:16.638Z,10.83
2017-09-19T18:40:43.970Z,4.60
2017-09-19T18:43:10.736Z,4.77
2017-09-19T18:45:37.499Z,6.20
2017-09-19T18:48:04.279Z,6.60
2017-09-19T18:50:31.091Z,5.03
2017-09-19T18:52:57.832Z,3.90
2017-09-19T18:55:24.635Z,4.73
2017-09-19T18:57:51.435Z,5.50
2017-09-19T19:00:18.198Z,3.83
2017-09-19T19:02:45.012Z,11.10
2017-09-19T19:05:12.410Z,6.87
2017-09-19T19:07:39.669Z,5.20
2017-09-19T19:10:06.439Z,5.33
2017-09-19T19:12:33.200Z,5.50
2017-09-19T19:14:59.967Z,9.33
2017-09-19T19:17:27.331Z,6.97
2017-09-19T19:19:54.077Z,6.83
2017-09-19T19:22:20.883Z,5.67
2017-09-19T19:24:47.684Z,5.75
2017-09-19T19:27:14.688Z,8.73
2017-09-19T19:29:41.465Z,9.23
2017-09-19T19:32:08.733Z,9.33
2017-09-19T19:34:35.509Z,8.33
2017-09-19T19:37:02.272Z,6.77
2017-09-19T19:39:29.114Z,9.73
2017-09-19T19:41:55.920Z,5.40
2017-09-19T19:44:22.672Z,3.70
2017-09-19T19:46:49.455Z,4.57
2017-09-19T19:49:16.375Z,5.57
2017-09-19T19:51:43.718Z,4.87
2017-09-19T19:54:10.511Z,31.50
2017-09-19T19:56:37.252Z,10.83
2017-09-19T19:59:04.026Z,5.70
2017-09-19T20:01:31.093Z,3.30
2017-09-19T20:03:57.873Z,3.53
2017-09-19T20:06:24.617Z,4.70
2017-09-19T20:08:51.432Z,7.93
2017-09-19T20:11:18.191Z,3.37
2017-09-19T20:13:44.945Z,4.00
2017-09-19T20:16:11.736Z,3.10
2017-09-19T20:18:38.854Z,5.37
2017-09-19T20:21:05.603Z,2.03
2017-09-19T20:23:32.406Z,5.70
2017-09-19T20:25:59.166Z,1.70
2017-09-19T20:28:25.938Z,10.40
2017-09-19T20:30:52.844Z,3.07
2017-09-19T20:33:19.591Z,2.40
2017-09-19T20:35:46.346Z,1.60
2017-09-19T20:38:13.124Z,11.00
2017-09-19T20:40:39.863Z,6.13
2017-09-19T20:43:06.629Z,3.60
2017-09-19T20:45:33.416Z,3.40
2017-09-19T20:48:00.186Z,3.90
2017-09-19T20:50:26.946Z,8.80
2017-09-19T20:52:53.736Z,3.07
2017-09-19T20:55:20.472Z,3.50
2017-09-19T20:57:47.832Z,2.83
2017-09-19T21:00:14.726Z,8.60
2017-09-19T21:02:41.078Z,3.00
2017-09-19T21:05:14.140Z,5.13
2017-09-19T21:07:46.753Z,10.50
2017-09-19T21:10:19.263Z,10.23
2017-09-19T21:12:51.874Z,3.20
2017-09-19T21:15:24.291Z,3.67
2017-09-19T21:17:56.617Z,5.27
2017-09-19T21:20:22.971Z,4.00
2017-09-19T21:22:49.795Z,6.40
2017-09-19T21:25:16.535Z,2.33
2017-09-19T21:27:43.294Z,1.90
2017-09-19T21:30:10.659Z,4.07
2017-09-19T21:32:37.421Z,6.83
2017-09-19T21:35:04.182Z,7.77
2017-09-19T21:37:30.956Z,3.73
2017-09-19T21:39:57.700Z,1.87
2017-09-19T21:42:24.443Z,3.20
2017-09-19T21:44:52.198Z,1.83
2017-09-19T21:47:18.944Z,8.40
2017-09-19T21:49:45.702Z,5.17
2017-09-19T21:52:12.492Z,3.37
2017-09-19T21:54:39.225Z,2.50
2017-09-19T21:57:05.965Z,2.33
2017-09-19T21:59:32.758Z,3.07
2017-09-19T22:01:59.527Z,2.20
2017-09-19T22:04:26.350Z,3.20
2017-09-19T22:06:53.132Z,1.93
2017-09-19T22:09:19.871Z,2.30
2017-09-19T22:11:46.639Z,7.00
2017-09-19T22:14:13.441Z,3.57
2017-09-19T22:16:40.797Z,8.33
2017-09-19T22:19:07.557Z,4.97
2017-09-19T22:21:34.327Z,3.93
2017-09-19T22:24:01.954Z,6.20
2017-09-19T22:26:29.458Z,5.07
2017-09-19T23:47:03.598Z,6.53
2017-09-19T23:49:30.343Z,6.27
2017-09-19T23:51:57.079Z,7.50
2017-09-19T23:54:23.862Z,11.30
2017-09-19T23:56:50.603Z,8.60
2017-09-19T23:59:17.367Z,5.43
